Arendahl, Minnesota
Current Conditions -  °F | °C
As of 3:15 PM on Friday 28 Nov 2014 (Local Time) from KFKA Reporting Station
Broken Clouds Broken Clouds  
Wind Chill: 16°   Ceiling: 1300
Heat Index: 24°   Visibility: 10mi
Dew Point: 19°   Wind: 7mph
Humidity: 82%   Direction: 140°SE
Pressure: 29.84"   Gusts: NA
Location:  43.7298°N, 91.8267°W
Report Text: KFKA 282115Z AUTO 14006KT 10SM BKN013 M05/M07 A2984 RMK AO2 T10461073
Loading
Personal Weather Stations






























Interactive Weather Map New forecast layout! Learn more

10-Day Weather Forecast

Advertisements
Track Severe Weather on mobile